KBYI/BYI METAR and TAF weather

Enter ICAO airport designator
Station Type Date Time Source
KBYI METAR 2020/04/08 20:53 UTC NOAA

KBYI 082053Z AUTO VRB05KT 10SM CLR 17/M02 A3012 RMK AO2 SLP179 T01721022


Station Type Date Time Source
KBYI Decoded METAR 2020/04/08 20:53 UTC NOAA

BURLEY MUNICIPAL AIRPORT, ID, United States (KBYI) 42-33N 113-46W 1264M
Apr 08, 2020 - 04:53 PM EDT / 2020.04.08 2053 UTC
Wind: Variable at 6 MPH (5 KT):0
Visibility: 10 mile(s):0
Sky conditions: clear
Temperature: 63.0 F (17.2 C)
Dew Point: 28.0 F (-2.2 C)
Relative Humidity: 26%
Pressure (altimeter): 30.12 in. Hg (1019 hPa)
Pressure tendency: 0.05 inches (1.7 hPa) lower than three hours ago
ob: KBYI 082053Z AUTO VRB05KT 10SM CLR 17/M02 A3012 RMK AO2 SLP179 T01721022 58017
cycle: 21

Station Type Date Time Source
KBYI TAF 2020/04/08 18:24 UTC NOAA

TAF KBYI 081721Z 0818/0918 06007KT P6SM SKC

Example: see airport list